Time;durP1;ratioP1;P1;durP2;ratioP2;P2;SDS_P1;SDS_P2;PMS_P1;PMS_P2;Temp;Humidity;BMP_temperature;BMP_pressure;BME280_temperature;BME280_humidity;BME280_pressure;Samples;Min_cycle;Max_cycle;Signal;HPM_P1;HPM_P2
2023/08/20 00:01:27;;;;;;;9.02;5.05;;;16.20;99.90;;;;;;5136867;27;20150;-64
2023/08/20 00:03:53;;;;;;;9.75;5.45;;;16.20;99.90;;;;;;5136947;27;20497;-64
2023/08/20 00:06:20;;;;;;;6.72;4.70;;;16.20;99.90;;;;;;5136591;27;20430;-63
2023/08/20 00:08:46;;;;;;;7.22;4.40;;;16.20;99.90;;;;;;5136422;27;20408;-63
2023/08/20 00:11:13;;;;;;;7.35;4.53;;;16.20;99.90;;;;;;5136651;27;20034;-64
2023/08/20 00:13:39;;;;;;;9.18;4.80;;;16.10;99.90;;;;;;5154869;27;20027;-64
2023/08/20 00:16:05;;;;;;;7.57;4.60;;;16.10;99.90;;;;;;5136500;27;20042;-63
2023/08/20 00:18:31;;;;;;;6.22;3.97;;;16.10;99.90;;;;;;5136139;27;20109;-63
2023/08/20 00:20:57;;;;;;;9.32;4.95;;;16.00;99.90;;;;;;5118955;27;20051;-63
2023/08/20 00:23:23;;;;;;;8.07;5.20;;;16.00;99.90;;;;;;5136108;27;20031;-63
2023/08/20 00:25:49;;;;;;;7.75;4.80;;;15.90;99.90;;;;;;5154794;27;20043;-63
2023/08/20 00:28:15;;;;;;;7.97;5.47;;;15.90;99.90;;;;;;5136179;27;20087;-64
2023/08/20 00:30:41;;;;;;;5.85;3.55;;;15.90;99.90;;;;;;5154646;27;20038;-64
2023/08/20 00:33:06;;;;;;;4.72;3.50;;;15.90;99.90;;;;;;5154755;27;20081;-64
2023/08/20 00:35:32;;;;;;;6.75;3.67;;;15.80;99.90;;;;;;5136325;27;20118;-63
2023/08/20 00:37:58;;;;;;;7.72;4.15;;;15.80;99.90;;;;;;5136014;27;20076;-63
2023/08/20 00:40:24;;;;;;;5.78;4.13;;;15.70;99.90;;;;;;5131234;27;20378;-64
2023/08/20 00:42:50;;;;;;;6.97;3.90;;;15.70;99.90;;;;;;5135719;27;20122;-64
2023/08/20 00:45:16;;;;;;;4.93;3.50;;;15.70;99.90;;;;;;5134824;27;20197;-64
2023/08/20 00:47:42;;;;;;;5.15;3.78;;;15.70;99.90;;;;;;5153972;27;20563;-63
2023/08/20 00:50:09;;;;;;;6.30;4.50;;;15.60;99.90;;;;;;5135506;27;20034;-64
2023/08/20 00:52:35;;;;;;;9.35;4.95;;;15.50;99.90;;;;;;5135441;27;20041;-64
2023/08/20 00:55:09;;;;;;;9.93;5.38;;;15.50;99.90;;;;;;5135734;27;20397;-64
2023/08/20 00:57:39;;;;;;;6.82;5.90;;;15.50;99.90;;;;;;5154131;27;20031;-63
2023/08/20 01:00:07;;;;;;;9.05;5.88;;;15.50;99.90;;;;;;5154276;27;20034;-64
2023/08/20 01:02:34;;;;;;;9.32;5.93;;;15.50;99.90;;;;;;5135752;27;20086;-63
2023/08/20 01:05:01;;;;;;;11.77;5.05;;;15.50;99.90;;;;;;5118012;27;20051;-63
2023/08/20 01:07:32;;;;;;;5.95;4.07;;;15.50;99.90;;;;;;5135492;27;20080;-64
2023/08/20 01:10:28;;;;;;;8.63;4.70;;;15.50;99.90;;;;;;5135474;27;20034;-64
2023/08/20 01:12:54;;;;;;;7.20;4.82;;;15.40;99.90;;;;;;5135090;27;20039;-63
2023/08/20 01:15:20;;;;;;;12.93;7.10;;;15.40;99.90;;;;;;5154123;27;20031;-64
2023/08/20 01:17:45;;;;;;;8.50;6.05;;;15.40;99.90;;;;;;5134963;27;20091;-63
2023/08/20 01:20:13;;;;;;;9.25;6.10;;;15.40;99.90;;;;;;5134755;27;20457;-63
2023/08/20 01:22:47;;;;;;;10.80;5.85;;;15.40;99.90;;;;;;5153587;27;20099;-63
2023/08/20 01:25:43;;;;;;;8.88;5.53;;;15.40;99.90;;;;;;5135070;27;20039;-63
2023/08/20 01:28:21;;;;;;;6.90;4.90;;;15.40;99.90;;;;;;5134849;27;20039;-63
2023/08/20 01:30:47;;;;;;;6.18;4.40;;;15.30;99.90;;;;;;5134930;27;20035;-63
2023/08/20 01:33:14;;;;;;;4.95;4.38;;;15.30;99.90;;;;;;5134465;27;20104;-63
2023/08/20 01:35:40;;;;;;;5.75;4.40;;;15.30;99.90;;;;;;5134816;27;20027;-63
2023/08/20 01:38:06;;;;;;;5.47;4.20;;;15.30;99.90;;;;;;5134758;27;20438;-63
2023/08/20 01:40:32;;;;;;;8.82;4.60;;;15.30;99.90;;;;;;5134662;27;20054;-63
2023/08/20 01:42:57;;;;;;;6.10;4.57;;;15.30;99.90;;;;;;5134491;27;20058;-63
2023/08/20 01:45:23;;;;;;;7.85;4.80;;;15.20;99.90;;;;;;5134860;27;20034;-63
2023/08/20 01:47:49;;;;;;;7.50;4.60;;;15.30;99.90;;;;;;5134408;27;20049;-63
2023/08/20 01:50:14;;;;;;;6.32;4.00;;;15.20;99.90;;;;;;5134595;27;20091;-64
2023/08/20 01:52:40;;;;;;;6.53;3.80;;;15.20;99.90;;;;;;5134382;27;20085;-63
2023/08/20 01:55:06;;;;;;;5.03;3.92;;;15.20;99.90;;;;;;5134331;27;20038;-63
2023/08/20 01:57:32;;;;;;;6.47;4.18;;;15.20;99.90;;;;;;5153086;27;20481;-64
2023/08/20 01:59:58;;;;;;;6.55;3.92;;;15.10;99.90;;;;;;5134368;27;20045;-63
2023/08/20 02:02:24;;;;;;;6.35;4.38;;;15.10;99.90;;;;;;5134675;27;20473;-63
2023/08/20 02:04:50;;;;;;;11.95;5.10;;;15.10;99.90;;;;;;5134404;27;20396;-64
2023/08/20 02:07:16;;;;;;;11.32;5.57;;;15.00;99.90;;;;;;5134379;27;20121;-63
2023/08/20 02:09:41;;;;;;;7.95;5.05;;;15.00;99.90;;;;;;5134159;27;20035;-64
2023/08/20 02:12:07;;;;;;;6.05;4.72;;;15.00;99.90;;;;;;5134063;27;20035;-63
2023/08/20 02:14:35;;;;;;;7.57;4.53;;;15.00;99.90;;;;;;5134526;27;20493;-63
2023/08/20 02:17:05;;;;;;;5.57;4.07;;;15.00;99.90;;;;;;5152619;27;20038;-63
2023/08/20 02:19:30;;;;;;;7.05;3.83;;;15.00;99.90;;;;;;5152623;27;20039;-63
2023/08/20 02:21:56;;;;;;;5.53;4.18;;;15.00;99.90;;;;;;5133444;27;20055;-63
2023/08/20 02:24:22;;;;;;;7.95;4.40;;;15.00;99.90;;;;;;5133754;27;20042;-63
2023/08/20 02:26:47;;;;;;;6.25;4.30;;;15.00;99.90;;;;;;5134199;27;20054;-64
2023/08/20 02:29:13;;;;;;;7.30;4.20;;;15.10;99.90;;;;;;5133762;27;20045;-64
2023/08/20 02:31:39;;;;;;;8.50;4.68;;;15.10;99.90;;;;;;5134038;27;20034;-64
2023/08/20 02:34:04;;;;;;;7.95;5.10;;;15.10;99.90;;;;;;5133877;27;20038;-63
2023/08/20 02:36:30;;;;;;;8.38;5.47;;;15.10;99.90;;;;;;5134029;27;20055;-63
2023/08/20 02:38:56;;;;;;;7.38;5.93;;;15.10;99.90;;;;;;5116474;27;20045;-63
2023/08/20 02:41:21;;;;;;;10.93;6.30;;;15.00;99.90;;;;;;5130262;27;20394;-63
2023/08/20 02:43:48;;;;;;;7.75;6.13;;;15.00;99.90;;;;;;5130772;27;20058;-63
2023/08/20 02:46:13;;;;;;;14.18;6.55;;;15.00;99.90;;;;;;5131360;27;20068;-63
2023/08/20 02:48:39;;;;;;;9.02;7.05;;;15.00;99.90;;;;;;5130075;27;20039;-63
2023/08/20 02:51:05;;;;;;;9.77;7.30;;;15.00;99.90;;;;;;5130236;27;20070;-63
2023/08/20 02:53:30;;;;;;;9.90;7.35;;;15.00;99.90;;;;;;5130237;27;20035;-63
2023/08/20 02:55:56;;;;;;;11.07;7.95;;;15.00;99.90;;;;;;5130131;27;20039;-64
2023/08/20 02:58:22;;;;;;;12.20;8.40;;;15.00;99.90;;;;;;5129836;27;20047;-63
2023/08/20 03:00:48;;;;;;;13.68;7.85;;;15.00;99.90;;;;;;5130208;27;20122;-63
2023/08/20 03:03:13;;;;;;;8.98;6.88;;;15.00;99.90;;;;;;5131214;28;20179;-63
2023/08/20 03:05:39;;;;;;;13.38;7.57;;;15.10;99.90;;;;;;5130060;28;20072;-64
2023/08/20 03:08:06;;;;;;;12.40;6.93;;;15.00;99.90;;;;;;5129781;27;20035;-63
2023/08/20 03:10:32;;;;;;;10.90;7.03;;;15.10;99.90;;;;;;5134071;27;20042;-63
2023/08/20 03:13:02;;;;;;;6.97;5.72;;;15.00;99.90;;;;;;5134333;27;20039;-63
2023/08/20 03:15:31;;;;;;;8.43;5.60;;;15.00;99.90;;;;;;5133956;27;20031;-64
2023/08/20 03:17:56;;;;;;;8.77;5.80;;;15.00;99.90;;;;;;5134543;27;20080;-64
2023/08/20 03:20:22;;;;;;;9.52;5.78;;;15.00;99.90;;;;;;5133945;27;20119;-63
2023/08/20 03:22:48;;;;;;;9.45;6.00;;;15.00;99.90;;;;;;5134230;27;20046;-64
2023/08/20 03:25:13;;;;;;;7.22;5.80;;;14.90;99.90;;;;;;5134162;27;20043;-63
2023/08/20 03:27:39;;;;;;;8.18;5.78;;;14.90;99.90;;;;;;5135350;27;20054;-63
2023/08/20 03:30:06;;;;;;;9.32;5.75;;;14.90;99.90;;;;;;5117248;27;20112;-63
2023/08/20 03:32:32;;;;;;;11.25;5.78;;;14.90;99.90;;;;;;5133904;27;20537;-64
2023/08/20 03:34:59;;;;;;;10.07;6.10;;;14.90;99.90;;;;;;5134012;27;20118;-63
2023/08/20 03:37:25;;;;;;;13.50;5.55;;;14.90;99.90;;;;;;5133429;27;20035;-63
2023/08/20 03:39:51;;;;;;;8.38;5.38;;;14.90;99.90;;;;;;5133692;27;20114;-63
2023/08/20 03:42:17;;;;;;;11.10;5.72;;;14.90;99.90;;;;;;5151954;27;20129;-64
2023/08/20 03:44:43;;;;;;;9.35;5.93;;;14.90;99.90;;;;;;5137387;27;20050;-63
2023/08/20 03:47:08;;;;;;;11.07;6.40;;;14.90;99.90;;;;;;5137514;27;20125;-63
2023/08/20 03:49:34;;;;;;;9.05;6.07;;;14.90;99.90;;;;;;5137112;27;20046;-64
2023/08/20 03:52:01;;;;;;;8.07;6.60;;;14.80;99.90;;;;;;5137062;27;20080;-63
2023/08/20 03:54:28;;;;;;;9.45;6.97;;;14.90;99.90;;;;;;5136776;27;20038;-64
2023/08/20 03:56:54;;;;;;;10.43;6.38;;;14.80;99.90;;;;;;5119403;27;20043;-63
2023/08/20 03:59:20;;;;;;;9.18;6.60;;;14.80;99.90;;;;;;5136731;27;20031;-64
2023/08/20 04:01:46;;;;;;;11.55;6.90;;;14.90;99.90;;;;;;5136579;27;20039;-63
2023/08/20 04:04:11;;;;;;;12.25;7.60;;;14.80;99.90;;;;;;5136363;27;20042;-63
2023/08/20 04:06:37;;;;;;;13.48;7.57;;;14.80;99.90;;;;;;5136588;27;20050;-63
2023/08/20 04:09:03;;;;;;;10.25;6.70;;;14.80;99.90;;;;;;5155349;27;20367;-64
2023/08/20 04:11:28;;;;;;;9.52;6.70;;;14.80;99.90;;;;;;5154939;27;20046;-63
2023/08/20 04:13:54;;;;;;;9.82;7.05;;;14.80;99.90;;;;;;5155045;27;20031;-64
2023/08/20 04:16:20;;;;;;;10.77;7.25;;;14.80;99.90;;;;;;5155228;27;20038;-63
2023/08/20 04:18:45;;;;;;;9.27;6.95;;;14.80;99.90;;;;;;5136633;27;20109;-64
2023/08/20 04:21:11;;;;;;;11.32;6.50;;;14.80;99.90;;;;;;5136277;27;20042;-63
2023/08/20 04:23:36;;;;;;;11.68;7.40;;;14.80;99.90;;;;;;5136706;27;20044;-64
2023/08/20 04:26:02;;;;;;;13.18;7.57;;;14.80;99.90;;;;;;5136329;27;20071;-63
2023/08/20 04:28:28;;;;;;;11.15;7.38;;;14.70;99.90;;;;;;5154684;27;20039;-63
2023/08/20 04:30:54;;;;;;;10.18;7.10;;;14.80;99.90;;;;;;5136171;27;20038;-64
2023/08/20 04:33:20;;;;;;;11.90;8.07;;;14.80;99.90;;;;;;5136274;27;20142;-63
2023/08/20 04:35:48;;;;;;;12.45;7.95;;;14.80;99.90;;;;;;5154325;27;20077;-63
2023/08/20 04:38:13;;;;;;;8.15;7.32;;;14.80;99.90;;;;;;5136516;27;20485;-63
2023/08/20 04:40:39;;;;;;;8.38;7.40;;;14.80;99.90;;;;;;5135910;27;20057;-64
2023/08/20 04:43:05;;;;;;;11.27;8.35;;;14.80;99.90;;;;;;5136040;27;20042;-63
2023/08/20 04:45:30;;;;;;;11.65;7.65;;;14.80;99.90;;;;;;5135922;27;20039;-64
2023/08/20 04:47:56;;;;;;;10.95;8.55;;;14.90;99.90;;;;;;5135229;27;20047;-63
2023/08/20 04:50:21;;;;;;;12.68;8.27;;;14.90;99.90;;;;;;5122446;27;20423;-64
2023/08/20 04:52:47;;;;;;;10.27;7.85;;;14.90;99.90;;;;;;5115082;27;20078;-63
2023/08/20 04:55:15;;;;;;;11.13;8.20;;;14.90;99.90;;;;;;5115425;27;20031;-64
2023/08/20 04:57:41;;;;;;;11.23;8.25;;;14.90;99.90;;;;;;5115116;27;20054;-63
2023/08/20 05:00:07;;;;;;;12.43;9.25;;;14.90;99.90;;;;;;5116350;27;20049;-64
2023/08/20 05:02:32;;;;;;;13.45;9.55;;;15.00;99.90;;;;;;5115208;27;20445;-63
2023/08/20 05:04:58;;;;;;;13.23;10.02;;;15.00;99.90;;;;;;5114872;27;20126;-64
2023/08/20 05:07:24;;;;;;;10.30;8.75;;;15.10;99.90;;;;;;5114948;27;20097;-64
2023/08/20 05:09:50;;;;;;;9.77;8.60;;;15.10;99.90;;;;;;5133373;27;20493;-63
2023/08/20 05:12:15;;;;;;;10.25;8.07;;;15.10;99.90;;;;;;5115124;27;20043;-63
2023/08/20 05:14:41;;;;;;;11.27;8.57;;;15.10;99.90;;;;;;5114908;27;20066;-63
2023/08/20 05:17:06;;;;;;;13.60;9.30;;;15.10;99.90;;;;;;5114714;27;20043;-64
2023/08/20 05:19:32;;;;;;;11.02;8.60;;;15.20;99.90;;;;;;5114812;27;20379;-64
2023/08/20 05:21:58;;;;;;;9.82;8.27;;;15.20;99.90;;;;;;5114637;27;20073;-64
2023/08/20 05:24:25;;;;;;;12.52;9.18;;;15.30;99.90;;;;;;5133235;27;20027;-63
2023/08/20 05:27:19;;;;;;;11.45;8.98;;;15.30;99.90;;;;;;5097288;27;20169;-64
2023/08/20 05:29:45;;;;;;;11.82;8.00;;;15.40;99.90;;;;;;5114410;27;20431;-63
2023/08/20 05:32:11;;;;;;;9.55;8.65;;;15.40;99.90;;;;;;5113745;27;20064;-64
2023/08/20 05:34:37;;;;;;;10.05;8.70;;;15.50;99.90;;;;;;5114489;27;20527;-64
2023/08/20 05:37:03;;;;;;;11.73;8.52;;;15.50;99.90;;;;;;5113853;27;20470;-63
2023/08/20 05:39:30;;;;;;;12.55;9.23;;;15.60;99.90;;;;;;5114716;27;20474;-64
2023/08/20 05:41:56;;;;;;;13.38;7.78;;;15.70;99.90;;;;;;5114038;27;20413;-63
2023/08/20 05:44:22;;;;;;;10.88;7.97;;;15.80;99.90;;;;;;5114175;27;20051;-64
2023/08/20 05:46:48;;;;;;;11.45;7.93;;;15.90;99.90;;;;;;5114105;27;20521;-63
2023/08/20 05:49:18;;;;;;;11.98;9.02;;;16.00;99.90;;;;;;5132641;27;20031;-63
2023/08/20 05:51:44;;;;;;;9.45;7.63;;;16.10;99.90;;;;;;5097143;27;20044;-63
2023/08/20 05:54:09;;;;;;;10.07;7.65;;;16.20;99.90;;;;;;5113884;27;20039;-63
2023/08/20 05:56:35;;;;;;;10.07;7.80;;;16.30;99.90;;;;;;5126797;27;20035;-63
2023/08/20 05:59:00;;;;;;;9.88;7.32;;;16.40;99.90;;;;;;5134452;27;20066;-63
2023/08/20 06:01:26;;;;;;;9.40;7.30;;;16.50;99.90;;;;;;5133980;27;20042;-63
2023/08/20 06:03:52;;;;;;;11.45;7.38;;;16.70;99.90;;;;;;5134130;27;20038;-64
2023/08/20 06:06:17;;;;;;;8.75;7.18;;;16.70;99.90;;;;;;5117171;27;20043;-63
2023/08/20 06:08:43;;;;;;;8.70;7.20;;;16.80;99.90;;;;;;5134138;27;20500;-64
2023/08/20 06:11:08;;;;;;;11.88;7.60;;;16.90;99.90;;;;;;5134092;27;20119;-63
2023/08/20 06:13:34;;;;;;;10.38;7.30;;;17.10;99.90;;;;;;5134132;27;20030;-64
2023/08/20 06:15:59;;;;;;;10.93;6.82;;;17.20;99.90;;;;;;5134394;27;20054;-64
2023/08/20 06:18:25;;;;;;;10.85;6.18;;;17.30;99.90;;;;;;5134061;27;20077;-65
2023/08/20 06:20:51;;;;;;;9.00;6.53;;;17.40;99.90;;;;;;5134218;27;20043;-64
2023/08/20 06:23:16;;;;;;;12.27;6.32;;;17.60;99.90;;;;;;5133887;27;20046;-63
2023/08/20 06:25:42;;;;;;;13.45;6.57;;;17.70;99.90;;;;;;5134135;27;20576;-64
2023/08/20 06:28:09;;;;;;;9.98;5.93;;;17.80;99.90;;;;;;5133655;27;20042;-64
2023/08/20 06:30:35;;;;;;;12.13;5.78;;;17.90;99.90;;;;;;5134016;27;20053;-64
2023/08/20 06:33:01;;;;;;;9.98;5.80;;;18.00;99.90;;;;;;5133474;27;20034;-64
2023/08/20 06:35:26;;;;;;;12.68;5.88;;;18.10;99.90;;;;;;5131400;27;20078;-64
2023/08/20 06:37:52;;;;;;;8.93;5.63;;;18.30;99.90;;;;;;5127985;27;20133;-64
2023/08/20 06:40:18;;;;;;;10.00;5.00;;;18.40;99.90;;;;;;5133795;27;20042;-64
2023/08/20 06:42:43;;;;;;;17.08;5.60;;;18.50;99.90;;;;;;5137115;27;20103;-63
2023/08/20 06:45:09;;;;;;;12.73;6.30;;;18.60;99.90;;;;;;5131875;27;20118;-64
2023/08/20 06:47:35;;;;;;;10.80;6.00;;;18.80;99.90;;;;;;5113281;27;20039;-64
2023/08/20 06:50:01;;;;;;;9.13;5.20;;;18.90;99.90;;;;;;5096043;27;20045;-64
2023/08/20 06:52:26;;;;;;;11.80;6.05;;;19.00;99.90;;;;;;5113282;27;20385;-64
2023/08/20 06:54:52;;;;;;;11.95;5.10;;;19.20;99.90;;;;;;5113498;27;20043;-64
2023/08/20 06:57:18;;;;;;;11.40;5.50;;;19.20;99.90;;;;;;5131291;27;20039;-64
2023/08/20 06:59:43;;;;;;;12.30;5.20;;;19.30;99.90;;;;;;5113089;27;20031;-64
2023/08/20 07:02:10;;;;;;;8.65;4.22;;;19.50;99.90;;;;;;5113156;27;20042;-64
2023/08/20 07:04:35;;;;;;;10.30;4.45;;;19.50;99.90;;;;;;5112862;27;20043;-64
2023/08/20 07:07:01;;;;;;;10.38;4.85;;;19.60;99.90;;;;;;5113164;28;20031;-64
2023/08/20 07:09:27;;;;;;;10.07;4.97;;;19.70;99.90;;;;;;5112603;27;20039;-64
2023/08/20 07:11:52;;;;;;;12.07;4.97;;;19.80;99.90;;;;;;5112828;28;20050;-64
2023/08/20 07:14:18;;;;;;;9.90;4.30;;;19.90;99.90;;;;;;5131296;27;20027;-64
2023/08/20 07:16:44;;;;;;;12.68;5.03;;;20.00;99.90;;;;;;5095690;27;20057;-64
2023/08/20 07:19:09;;;;;;;14.52;4.70;;;20.10;99.90;;;;;;5117682;27;20043;-64
2023/08/20 07:21:35;;;;;;;10.55;4.28;;;20.10;99.90;;;;;;5112684;27;20035;-64
2023/08/20 07:24:01;;;;;;;11.13;4.80;;;20.20;99.90;;;;;;5112862;28;20035;-64
2023/08/20 07:26:26;;;;;;;9.60;4.57;;;20.40;99.90;;;;;;5112523;27;20039;-64
2023/08/20 07:28:58;;;;;;;11.75;4.90;;;20.50;99.90;;;;;;5112638;27;20047;-64
2023/08/20 07:31:24;;;;;;;11.90;4.93;;;20.50;99.90;;;;;;5112989;27;20470;-63
2023/08/20 07:33:50;;;;;;;9.02;3.60;;;20.60;99.90;;;;;;5131171;27;20038;-64
2023/08/20 07:36:18;;;;;;;13.52;4.40;;;20.70;99.90;;;;;;5095658;27;20047;-64
2023/08/20 07:38:43;;;;;;;14.85;4.78;;;20.60;99.90;;;;;;5130935;27;20053;-64
2023/08/20 07:41:11;;;;;;;11.23;3.72;;;20.70;99.90;;;;;;5112362;28;20059;-64
2023/08/20 07:43:38;;;;;;;9.43;3.80;;;20.80;99.90;;;;;;5112443;27;20095;-63
2023/08/20 07:46:04;;;;;;;13.52;4.22;;;20.90;99.90;;;;;;5112873;28;20039;-63
2023/08/20 07:48:30;;;;;;;11.80;3.80;;;21.00;99.90;;;;;;5112433;27;20059;-63
2023/08/20 07:50:56;;;;;;;14.75;4.72;;;21.00;99.90;;;;;;5112547;27;20047;-63
2023/08/20 07:53:21;;;;;;;10.90;4.03;;;21.00;99.90;;;;;;5131016;27;20038;-63
2023/08/20 07:55:47;;;;;;;11.02;3.40;;;21.10;99.90;;;;;;5114932;27;20045;-63
2023/08/20 07:58:13;;;;;;;10.68;3.60;;;21.30;99.90;;;;;;5116639;27;20035;-63
2023/08/20 08:00:38;;;;;;;13.85;3.80;;;21.50;99.90;;;;;;5134765;27;20035;-64
2023/08/20 08:03:04;;;;;;;8.52;3.20;;;21.60;99.90;;;;;;5134749;27;20426;-63
2023/08/20 08:05:30;;;;;;;11.38;2.92;;;21.80;99.90;;;;;;5116222;27;20042;-63
2023/08/20 08:07:55;;;;;;;11.18;3.00;;;22.00;99.90;;;;;;5116075;27;20042;-62
2023/08/20 08:10:21;;;;;;;12.48;3.40;;;22.20;99.90;;;;;;5116626;27;20038;-64
2023/08/20 08:12:46;;;;;;;8.88;2.95;;;22.10;99.90;;;;;;5154013;27;20046;-63
2023/08/20 08:15:13;;;;;;;10.73;2.90;;;22.20;99.90;;;;;;5137022;27;20050;-64
2023/08/20 08:17:39;;;;;;;9.95;2.97;;;22.30;99.90;;;;;;5118895;27;20393;-63
2023/08/20 08:20:05;;;;;;;10.82;3.55;;;22.40;99.90;;;;;;5136768;27;20091;-63
2023/08/20 08:22:31;;;;;;;9.32;3.10;;;22.30;99.90;;;;;;5136449;27;20042;-63
2023/08/20 08:24:56;;;;;;;9.80;2.83;;;22.20;99.90;;;;;;5136421;27;20523;-62
2023/08/20 08:27:22;;;;;;;10.07;2.92;;;22.40;99.90;;;;;;5155444;27;20077;-63
2023/08/20 08:29:48;;;;;;;10.35;2.92;;;22.50;99.90;;;;;;5136562;27;20039;-63
2023/08/20 08:32:13;;;;;;;9.23;2.65;;;22.70;99.90;;;;;;5155162;27;20041;-64
2023/08/20 08:34:39;;;;;;;7.65;2.33;;;22.70;99.90;;;;;;5136088;27;20038;-64
2023/08/20 08:37:05;;;;;;;9.20;2.30;;;22.80;99.90;;;;;;5155002;27;20035;-63
2023/08/20 08:39:30;;;;;;;10.45;3.13;;;22.80;99.90;;;;;;5136248;27;20415;-63
2023/08/20 08:42:04;;;;;;;12.15;2.90;;;22.70;99.90;;;;;;5135973;27;20045;-63
2023/08/20 08:44:34;;;;;;;8.55;1.98;;;22.90;99.90;;;;;;5136522;27;20416;-63
2023/08/20 08:47:04;;;;;;;9.68;2.38;;;22.90;99.90;;;;;;5136057;27;20035;-64
2023/08/20 08:49:33;;;;;;;7.88;2.38;;;22.90;99.90;;;;;;5136135;27;20132;-64
2023/08/20 08:51:59;;;;;;;8.43;2.22;;;22.90;99.90;;;;;;5136087;27;20038;-63
2023/08/20 08:54:25;;;;;;;7.75;2.05;;;23.00;99.90;;;;;;5136237;27;20049;-63
2023/08/20 08:56:50;;;;;;;10.52;2.50;;;23.20;99.90;;;;;;5135857;27;20054;-63
2023/08/20 08:59:16;;;;;;;7.85;2.28;;;23.20;99.90;;;;;;5154541;27;20030;-63
2023/08/20 09:01:42;;;;;;;7.25;2.20;;;23.20;99.90;;;;;;5135789;27;20058;-63
2023/08/20 09:04:08;;;;;;;9.50;2.25;;;23.40;99.90;;;;;;5136054;27;20403;-63
2023/08/20 09:06:51;;;;;;;7.85;2.30;;;23.20;99.90;;;;;;5134454;27;20038;-63
2023/08/20 09:09:18;;;;;;;9.57;2.83;;;23.30;99.90;;;;;;5154257;27;20042;-63
2023/08/20 09:11:44;;;;;;;7.15;2.33;;;23.30;99.90;;;;;;5154241;27;20119;-63
2023/08/20 09:14:32;;;;;;;8.30;2.50;;;23.40;99.90;;;;;;5135881;27;20088;-64
2023/08/20 09:16:59;;;;;;;9.25;2.63;;;23.70;99.90;;;;;;5135468;27;20047;-63
2023/08/20 09:19:30;;;;;;;9.80;2.70;;;23.80;99.90;;;;;;5154282;27;20042;-63
2023/08/20 09:21:58;;;;;;;7.45;2.47;;;23.90;99.90;;;;;;5135392;27;20042;-63
2023/08/20 09:24:45;;;;;;;5.75;2.22;;;24.20;99.90;;;;;;5135666;27;20083;-63
2023/08/20 09:27:12;;;;;;;4.68;1.70;;;24.10;99.90;;;;;;5153798;27;20122;-63
2023/08/20 09:29:53;;;;;;;8.80;2.35;;;24.30;99.90;;;;;;5135214;27;20046;-63
2023/08/20 09:32:21;;;;;;;7.60;2.08;;;24.30;99.90;;;;;;5154008;27;20429;-63
2023/08/20 09:34:50;;;;;;;5.25;1.30;;;24.30;99.90;;;;;;5135141;27;20054;-64
2023/08/20 09:37:17;;;;;;;5.65;1.42;;;24.40;99.90;;;;;;5135410;27;20435;-64
2023/08/20 09:39:43;;;;;;;5.18;1.30;;;24.40;99.90;;;;;;5134805;27;20499;-63
2023/08/20 09:42:10;;;;;;;5.65;1.35;;;24.40;99.90;;;;;;5134766;27;20529;-64
2023/08/20 09:44:41;;;;;;;5.90;1.33;;;24.50;99.90;;;;;;5135089;27;20152;-63
2023/08/20 09:47:12;;;;;;;5.75;1.30;;;24.50;99.90;;;;;;5134648;27;20034;-63
2023/08/20 09:49:43;;;;;;;5.68;1.38;;;24.40;99.90;;;;;;5134956;27;20042;-64
2023/08/20 09:52:11;;;;;;;4.88;1.55;;;24.30;99.90;;;;;;5134915;27;20045;-63
2023/08/20 09:55:11;;;;;;;9.13;1.83;;;24.40;99.90;;;;;;5134937;27;20043;-63
2023/08/20 09:57:38;;;;;;;6.00;1.55;;;24.40;99.90;;;;;;5032431;28;20095;-64
2023/08/20 10:00:12;;;;;;;5.47;1.63;;;24.60;99.90;;;;;;5015574;28;20051;-63
2023/08/20 10:02:38;;;;;;;4.95;1.73;;;24.60;99.90;;;;;;5032778;28;20110;-63
2023/08/20 10:05:06;;;;;;;5.03;1.33;;;24.70;99.90;;;;;;5031949;28;20040;-64
2023/08/20 10:07:32;;;;;;;4.72;1.42;;;24.80;99.90;;;;;;5032528;28;20482;-64
2023/08/20 10:10:00;;;;;;;8.55;1.70;;;25.00;99.90;;;;;;5032507;28;20503;-63
2023/08/20 10:12:27;;;;;;;5.78;1.55;;;25.10;99.90;;;;;;5015877;28;20114;-64
2023/08/20 10:14:53;;;;;;;7.68;2.08;;;25.20;99.90;;;;;;5032323;28;20532;-63
2023/08/20 10:17:19;;;;;;;6.38;2.08;;;25.50;99.90;;;;;;5031863;28;20079;-63
2023/08/20 10:19:46;;;;;;;6.70;1.75;;;25.40;99.90;;;;;;5032061;28;20088;-64
2023/08/20 10:22:11;;;;;;;5.32;1.30;;;25.40;99.90;;;;;;5048484;28;20465;-63
2023/08/20 10:24:46;;;;;;;5.88;1.30;;;25.50;99.90;;;;;;5048798;28;20076;-64
2023/08/20 10:27:12;;;;;;;5.38;1.30;;;25.40;99.90;;;;;;5031618;28;20090;-63
2023/08/20 10:29:41;;;;;;;7.38;1.42;;;25.20;99.90;;;;;;5048751;28;20040;-64
2023/08/20 10:32:10;;;;;;;5.07;1.50;;;25.40;99.90;;;;;;5031641;28;20403;-64
2023/08/20 10:34:38;;;;;;;5.10;1.10;;;25.40;99.90;;;;;;5099888;27;20054;-64
2023/08/20 10:37:10;;;;;;;4.55;1.40;;;25.60;99.90;;;;;;5133928;27;20122;-64
2023/08/20 10:39:36;;;;;;;5.35;1.30;;;25.80;99.90;;;;;;5152761;27;20062;-64
2023/08/20 10:42:28;;;;;;;5.68;1.33;;;26.00;99.90;;;;;;5133800;27;20093;-64
2023/08/20 10:45:10;;;;;;;5.43;1.20;;;26.10;99.70;;;;;;5129419;27;20079;-64
2023/08/20 10:47:48;;;;;;;10.18;1.38;;;26.00;99.50;;;;;;5133798;27;20041;-64
2023/08/20 10:50:17;;;;;;;8.60;1.55;;;25.90;99.90;;;;;;5152241;27;20091;-63
2023/08/20 10:52:55;;;;;;;5.00;1.40;;;25.90;99.90;;;;;;5152388;27;20072;-64
2023/08/20 10:55:24;;;;;;;5.38;1.70;;;26.10;99.90;;;;;;5152220;27;20126;-63
2023/08/20 10:57:59;;;;;;;12.05;2.22;;;26.00;99.90;;;;;;5133768;27;20042;-64
2023/08/20 11:00:25;;;;;;;6.20;1.20;;;25.80;99.90;;;;;;5133217;27;20049;-64
2023/08/20 11:02:52;;;;;;;5.05;1.25;;;25.70;99.90;;;;;;5133776;27;20042;-64
2023/08/20 11:05:21;;;;;;;5.53;1.40;;;25.70;99.90;;;;;;5133441;27;20042;-64
2023/08/20 11:07:48;;;;;;;4.63;1.30;;;25.90;99.90;;;;;;5133696;27;20039;-63
2023/08/20 11:10:14;;;;;;;9.23;1.67;;;26.00;99.90;;;;;;5133812;27;20419;-64
2023/08/20 11:12:41;;;;;;;6.13;1.40;;;25.90;99.90;;;;;;5152323;27;20035;-64
2023/08/20 11:15:09;;;;;;;5.00;1.58;;;25.90;99.90;;;;;;5133617;27;20047;-64
2023/08/20 11:17:34;;;;;;;5.03;1.73;;;25.90;99.90;;;;;;5133520;27;20099;-64
2023/08/20 11:20:01;;;;;;;5.00;1.45;;;25.90;99.90;;;;;;5133967;27;20046;-63
2023/08/20 11:22:27;;;;;;;4.47;1.08;;;26.20;99.90;;;;;;5133260;27;20046;-63
2023/08/20 11:24:55;;;;;;;6.25;1.45;;;26.20;99.90;;;;;;5133483;27;20039;-64
2023/08/20 11:27:27;;;;;;;4.55;1.42;;;26.20;98.60;;;;;;5133460;27;20484;-63
2023/08/20 11:29:53;;;;;;;5.65;1.15;;;26.40;98.60;;;;;;5152936;27;20485;-64
2023/08/20 11:32:19;;;;;;;3.70;1.00;;;26.40;98.90;;;;;;5137598;27;20503;-64
2023/08/20 11:34:45;;;;;;;4.70;1.23;;;26.30;97.60;;;;;;5137562;27;20105;-64
2023/08/20 11:37:10;;;;;;;4.70;1.10;;;26.10;97.30;;;;;;5137576;27;20110;-65
2023/08/20 11:39:37;;;;;;;4.80;0.88;;;25.90;97.30;;;;;;5137197;27;20415;-64
2023/08/20 11:42:02;;;;;;;5.82;1.20;;;25.80;97.40;;;;;;5133942;27;20051;-64
2023/08/20 11:44:41;;;;;;;5.15;1.20;;;25.80;97.20;;;;;;5133794;27;20039;-63
2023/08/20 11:47:17;;;;;;;2.47;0.60;;;25.80;97.20;;;;;;5133833;27;20031;-63
2023/08/20 11:49:43;;;;;;;5.75;1.20;;;25.80;96.10;;;;;;5133938;27;20517;-64
2023/08/20 11:52:09;;;;;;;3.65;0.90;;;25.80;95.50;;;;;;5134199;27;20127;-63
2023/08/20 11:54:36;;;;;;;6.45;1.15;;;25.80;96.40;;;;;;5133858;27;20428;-64
2023/08/20 11:57:06;;;;;;;6.07;1.90;;;25.90;97.20;;;;;;5135192;27;20374;-64
2023/08/20 11:59:32;;;;;;;4.18;1.10;;;25.90;96.30;;;;;;5133700;27;20043;-64
2023/08/20 12:02:03;;;;;;;3.22;0.85;;;25.80;96.60;;;;;;5133837;27;20035;-64
2023/08/20 12:04:30;;;;;;;4.30;0.80;;;25.80;95.90;;;;;;5116499;27;20125;-64
2023/08/20 12:07:09;;;;;;;4.28;1.20;;;25.60;94.40;;;;;;5133591;27;20039;-64
2023/08/20 12:09:35;;;;;;;3.33;1.15;;;25.60;94.60;;;;;;5133414;27;20494;-64
2023/08/20 12:12:02;;;;;;;2.80;0.95;;;25.60;96.00;;;;;;5133910;27;20110;-64
2023/08/20 12:14:28;;;;;;;4.43;0.90;;;25.50;95.10;;;;;;5133114;27;20043;-63
2023/08/20 12:16:55;;;;;;;3.33;0.80;;;25.50;94.90;;;;;;5133268;27;20042;-64
2023/08/20 12:19:21;;;;;;;4.30;1.08;;;25.40;95.20;;;;;;5133524;27;20393;-64
2023/08/20 12:21:47;;;;;;;3.53;1.00;;;25.40;95.80;;;;;;5132984;27;20035;-64
2023/08/20 12:24:13;;;;;;;6.03;1.15;;;25.30;96.20;;;;;;5115688;27;20055;-64
2023/08/20 12:26:39;;;;;;;4.15;1.13;;;25.40;96.80;;;;;;5133112;27;20489;-63
2023/08/20 12:29:05;;;;;;;4.03;1.00;;;25.40;96.70;;;;;;5133240;27;20031;-64
2023/08/20 12:31:34;;;;;;;3.30;1.13;;;25.40;96.70;;;;;;5132868;27;20479;-64
2023/08/20 12:34:01;;;;;;;2.28;0.70;;;25.30;95.70;;;;;;5133087;27;20047;-64
2023/08/20 12:36:27;;;;;;;2.58;0.77;;;25.20;95.90;;;;;;5132910;27;20058;-64
2023/08/20 12:38:53;;;;;;;2.20;0.70;;;25.20;95.60;;;;;;5133097;27;20530;-64
2023/08/20 12:41:21;;;;;;;3.13;0.70;;;25.20;95.60;;;;;;5134181;27;20035;-64
2023/08/20 12:43:47;;;;;;;4.55;0.93;;;25.20;95.70;;;;;;5135925;27;20054;-64